createdAt,value
2023-03-03T00:00:09.109Z,15.45
2023-03-03T00:02:36.048Z,15.15
2023-03-03T00:05:02.996Z,14.73
2023-03-03T00:07:29.885Z,14.60
2023-03-03T00:09:56.865Z,14.52
2023-03-03T00:12:27.004Z,14.40
2023-03-03T00:14:54.053Z,14.27
2023-03-03T00:17:24.939Z,13.18
2023-03-03T00:19:52.694Z,13.45
2023-03-03T00:22:36.330Z,13.27
2023-03-03T00:25:25.689Z,12.37
2023-03-03T00:27:52.607Z,13.48
2023-03-03T00:30:28.639Z,16.60
2023-03-03T00:32:55.983Z,14.40
2023-03-03T00:35:30.561Z,13.75
2023-03-03T00:38:02.518Z,14.75
2023-03-03T00:40:36.586Z,14.25
2023-03-03T00:43:20.260Z,14.13
2023-03-03T00:45:52.540Z,15.77
2023-03-03T00:48:42.516Z,14.52
2023-03-03T00:51:12.117Z,14.90
2023-03-03T00:53:39.440Z,13.23
2023-03-03T00:56:06.525Z,13.32
2023-03-03T00:58:33.402Z,13.57
2023-03-03T01:01:00.253Z,13.93
2023-03-03T01:03:27.550Z,13.98
2023-03-03T01:05:54.851Z,12.68
2023-03-03T01:08:22.632Z,14.07
2023-03-03T01:10:55.246Z,13.30
2023-03-03T01:13:25.129Z,13.80
2023-03-03T01:15:52.288Z,13.55
2023-03-03T01:18:19.429Z,12.68
2023-03-03T01:20:46.584Z,15.63
2023-03-03T01:23:13.675Z,19.52
2023-03-03T01:25:40.839Z,17.42
2023-03-03T01:28:07.782Z,13.75
2023-03-03T01:30:34.908Z,14.50
2023-03-03T01:33:01.824Z,14.40
2023-03-03T01:35:30.194Z,13.82
2023-03-03T01:37:57.560Z,12.57
2023-03-03T01:40:27.203Z,13.05
2023-03-03T01:42:54.133Z,12.60
2023-03-03T01:45:29.363Z,13.02
2023-03-03T01:48:05.507Z,13.07
2023-03-03T01:50:35.940Z,12.98
2023-03-03T01:53:05.421Z,13.80
2023-03-03T01:55:37.744Z,13.15
2023-03-03T01:58:08.195Z,12.85
2023-03-03T02:00:37.277Z,13.43
2023-03-03T02:03:04.940Z,13.05
2023-03-03T02:05:32.556Z,12.85
2023-03-03T02:07:59.672Z,14.52
2023-03-03T02:10:27.224Z,14.07
2023-03-03T02:12:56.723Z,13.93
2023-03-03T02:15:36.227Z,14.80
2023-03-03T02:18:17.428Z,14.07
2023-03-03T02:20:44.205Z,14.98
2023-03-03T02:25:59.180Z,13.50
2023-03-03T02:28:31.826Z,14.23
2023-03-03T02:31:00.218Z,13.70
2023-03-03T02:33:27.819Z,15.00
2023-03-03T02:35:54.818Z,15.05
2023-03-03T02:38:35.400Z,14.80
2023-03-03T02:41:16.101Z,14.60
2023-03-03T02:44:03.050Z,14.90
2023-03-03T02:46:39.960Z,15.43
2023-03-03T02:49:08.822Z,14.77
2023-03-03T02:51:36.436Z,15.45
2023-03-03T02:54:03.774Z,14.30
2023-03-03T02:56:30.824Z,15.48
2023-03-03T02:58:57.849Z,15.38
2023-03-03T03:01:24.922Z,15.93
2023-03-03T03:03:51.946Z,15.20
2023-03-03T03:06:19.791Z,15.85
2023-03-03T03:08:46.716Z,15.60
2023-03-03T03:11:13.624Z,15.60
2023-03-03T03:13:40.616Z,16.35
2023-03-03T03:16:07.856Z,16.33
2023-03-03T03:18:34.747Z,16.27
2023-03-03T03:21:09.813Z,16.85
2023-03-03T03:23:36.860Z,15.82
2023-03-03T03:26:04.484Z,16.40
2023-03-03T03:28:31.455Z,15.50
2023-03-03T03:30:58.527Z,15.27
2023-03-03T03:33:25.518Z,15.32
2023-03-03T03:35:52.463Z,17.00
2023-03-03T03:38:19.385Z,16.48
2023-03-03T03:40:46.256Z,16.70
2023-03-03T03:43:13.175Z,16.10
2023-03-03T03:45:43.089Z,15.82
2023-03-03T03:48:10.042Z,16.90
2023-03-03T03:50:37.264Z,14.98
2023-03-03T03:53:04.434Z,16.85
2023-03-03T03:55:31.469Z,16.62
2023-03-03T03:57:58.760Z,18.75
2023-03-03T04:00:25.953Z,19.77
2023-03-03T04:02:52.972Z,19.35
2023-03-03T04:05:20.140Z,20.73
2023-03-03T04:07:46.998Z,20.12
2023-03-03T04:10:14.217Z,18.27
2023-03-03T04:12:41.107Z,17.70
2023-03-03T04:15:10.165Z,19.80
2023-03-03T04:17:37.164Z,20.88
2023-03-03T04:20:05.319Z,19.98
2023-03-03T04:22:36.132Z,15.65
2023-03-03T04:25:05.462Z,13.57
2023-03-03T04:27:36.398Z,13.95
2023-03-03T04:30:05.954Z,14.02
2023-03-03T04:32:34.200Z,14.20
2023-03-03T04:35:08.137Z,14.65
2023-03-03T04:37:36.354Z,14.90
2023-03-03T04:40:04.550Z,14.87
2023-03-03T04:42:31.516Z,17.70
2023-03-03T04:44:58.374Z,15.15
2023-03-03T04:49:51.953Z,15.75
2023-03-03T04:52:18.850Z,15.73
2023-03-03T04:54:45.803Z,16.40
2023-03-03T04:57:12.698Z,21.25
2023-03-03T04:59:39.610Z,21.67
2023-03-03T05:02:06.450Z,20.73
2023-03-03T05:07:00.099Z,16.10
2023-03-03T05:09:27.123Z,16.95
2023-03-03T05:11:54.316Z,15.77
2023-03-03T05:14:21.299Z,16.05
2023-03-03T05:16:48.215Z,15.45
2023-03-03T05:19:15.671Z,15.02
2023-03-03T05:21:42.895Z,16.52
2023-03-03T05:24:14.155Z,15.73
2023-03-03T05:26:41.685Z,14.77
2023-03-03T05:29:09.387Z,14.93
2023-03-03T05:31:36.424Z,15.50
2023-03-03T05:34:03.375Z,14.45
2023-03-03T05:36:30.554Z,16.45
2023-03-03T05:38:57.449Z,15.15
2023-03-03T05:41:24.370Z,16.17
2023-03-03T05:43:51.283Z,15.75
2023-03-03T05:46:18.164Z,15.50
2023-03-03T05:48:45.508Z,16.45
2023-03-03T05:51:12.394Z,14.70
2023-03-03T05:53:39.412Z,17.00
2023-03-03T05:56:06.644Z,16.48
2023-03-03T05:58:33.586Z,15.00
2023-03-03T06:01:00.505Z,15.15
2023-03-03T06:03:27.396Z,14.25
2023-03-03T06:05:54.366Z,15.52
2023-03-03T06:08:21.388Z,14.32
2023-03-03T06:10:48.372Z,16.33
2023-03-03T06:13:15.430Z,15.93
2023-03-03T06:15:42.409Z,15.88
2023-03-03T06:18:09.807Z,17.12
2023-03-03T06:20:36.859Z,16.95
2023-03-03T06:23:03.919Z,18.05
2023-03-03T06:25:30.785Z,17.10
2023-03-03T06:27:58.213Z,17.40
2023-03-03T06:30:27.123Z,17.08
2023-03-03T06:32:54.403Z,16.73
2023-03-03T06:35:21.358Z,16.50
2023-03-03T06:37:50.967Z,16.75
2023-03-03T06:40:18.130Z,17.83
2023-03-03T06:42:45.122Z,16.62
2023-03-03T06:45:12.408Z,21.30
2023-03-03T06:47:39.367Z,43.22
2023-03-03T06:50:07.113Z,31.85
2023-03-03T06:52:34.390Z,22.75
2023-03-03T06:55:02.774Z,21.58
2023-03-03T06:57:31.641Z,20.75
2023-03-03T07:00:17.546Z,18.75
2023-03-03T07:02:44.478Z,18.08
2023-03-03T07:05:15.674Z,18.73
2023-03-03T07:07:42.827Z,16.52
2023-03-03T07:10:26.598Z,17.83
2023-03-03T07:12:53.820Z,17.85
2023-03-03T07:15:25.485Z,17.60
2023-03-03T07:17:59.825Z,19.08
2023-03-03T07:20:36.358Z,17.85
2023-03-03T07:23:19.866Z,15.90
2023-03-03T07:25:46.887Z,16.05
2023-03-03T07:28:24.650Z,16.20
2023-03-03T07:30:54.694Z,17.60
2023-03-03T07:33:34.758Z,15.70
2023-03-03T07:36:02.756Z,16.52
2023-03-03T07:38:36.319Z,16.67
2023-03-03T07:41:11.776Z,15.25
2023-03-03T07:43:42.145Z,17.12
2023-03-03T07:46:17.677Z,14.95
2023-03-03T07:48:44.737Z,16.85
2023-03-03T07:51:37.784Z,15.45
2023-03-03T07:54:28.608Z,17.12
2023-03-03T07:57:23.400Z,15.90
2023-03-03T07:59:55.527Z,15.90
2023-03-03T08:02:46.236Z,14.80
2023-03-03T08:05:38.636Z,16.08
2023-03-03T08:08:33.886Z,13.98
2023-03-03T08:11:01.905Z,12.85
2023-03-03T08:13:34.929Z,13.38
2023-03-03T08:16:04.993Z,12.70
2023-03-03T08:18:53.446Z,12.65
2023-03-03T08:21:22.378Z,11.30
2023-03-03T08:23:53.414Z,10.18
2023-03-03T08:26:24.088Z,10.65
2023-03-03T08:28:51.234Z,10.70
2023-03-03T08:31:28.080Z,9.90
2023-03-03T08:34:01.850Z,9.73
2023-03-03T08:36:28.702Z,11.30
2023-03-03T08:38:55.771Z,12.50
2023-03-03T08:41:22.666Z,12.00
2023-03-03T08:43:49.596Z,9.95
2023-03-03T08:46:16.612Z,11.15
2023-03-03T08:48:43.490Z,11.82
2023-03-03T08:51:10.396Z,11.80
2023-03-03T08:53:38.409Z,11.85
2023-03-03T08:56:07.048Z,11.77
2023-03-03T08:58:35.942Z,10.82
2023-03-03T09:01:04.449Z,10.05
2023-03-03T09:03:31.662Z,11.25
2023-03-03T09:05:58.528Z,11.30
2023-03-03T09:08:25.414Z,10.32
2023-03-03T09:10:52.253Z,9.60
2023-03-03T09:15:47.796Z,10.40
2023-03-03T09:18:20.602Z,9.95
2023-03-03T09:20:49.522Z,9.23
2023-03-03T09:23:39.901Z,9.88
2023-03-03T09:26:45.401Z,11.23
2023-03-03T09:29:15.257Z,9.95
2023-03-03T09:31:42.113Z,10.07
2023-03-03T09:34:36.899Z,9.38
2023-03-03T09:37:22.310Z,9.75
2023-03-03T09:39:52.163Z,10.30
2023-03-03T09:42:43.097Z,10.60
2023-03-03T09:45:39.006Z,11.90
2023-03-03T09:48:26.332Z,10.75
2023-03-03T09:51:13.081Z,10.40
2023-03-03T09:54:01.553Z,11.23
2023-03-03T09:56:42.584Z,11.52
2023-03-03T09:59:22.406Z,11.27
2023-03-03T10:02:56.072Z,10.95
2023-03-03T10:05:39.439Z,11.98
2023-03-03T10:08:24.980Z,11.00
2023-03-03T10:11:05.555Z,12.43
2023-03-03T10:14:05.538Z,12.10
2023-03-03T10:16:44.449Z,10.23
2023-03-03T10:19:34.380Z,10.43
2023-03-03T10:22:29.739Z,11.70
2023-03-03T10:25:23.092Z,9.55
2023-03-03T10:28:14.592Z,8.80
2023-03-03T10:31:12.492Z,9.18
2023-03-03T10:34:02.779Z,8.75
2023-03-03T10:36:47.321Z,9.75
2023-03-03T10:39:23.372Z,9.18
2023-03-03T10:42:03.405Z,9.70
2023-03-03T10:45:04.654Z,10.35
2023-03-03T10:48:08.663Z,8.60
2023-03-03T10:50:38.324Z,10.40
2023-03-03T10:53:15.364Z,10.40
2023-03-03T10:56:02.099Z,10.00
2023-03-03T10:58:45.193Z,10.50
2023-03-03T11:01:24.130Z,9.50
2023-03-03T11:03:55.590Z,9.52
2023-03-03T11:06:28.717Z,9.57
2023-03-03T11:09:00.944Z,9.35
2023-03-03T11:11:41.248Z,9.73
2023-03-03T11:14:37.295Z,9.20
2023-03-03T11:17:23.905Z,10.57
2023-03-03T11:20:12.260Z,10.75
2023-03-03T11:23:00.113Z,10.55
2023-03-03T11:28:14.515Z,9.85
2023-03-03T11:31:13.433Z,9.80
2023-03-03T11:33:52.312Z,8.90
2023-03-03T11:36:39.426Z,11.27
2023-03-03T11:39:16.935Z,10.18
2023-03-03T11:42:14.477Z,9.77
2023-03-03T11:45:02.596Z,9.50
2023-03-03T11:47:38.401Z,10.30
2023-03-03T11:50:18.608Z,12.98
2023-03-03T11:53:30.076Z,13.50
2023-03-03T11:56:02.256Z,13.55
2023-03-03T11:59:20.304Z,15.35
2023-03-03T12:01:52.744Z,14.02
2023-03-03T12:04:23.066Z,14.27
2023-03-03T12:07:22.098Z,13.60
2023-03-03T12:10:24.477Z,12.63
2023-03-03T12:13:19.062Z,12.35
2023-03-03T12:15:48.791Z,11.93
2023-03-03T12:18:36.946Z,12.57
2023-03-03T12:21:25.937Z,11.90
2023-03-03T12:23:58.673Z,11.32
2023-03-03T12:26:34.838Z,11.77
2023-03-03T12:29:19.548Z,7.37
2023-03-03T12:32:39.220Z,7.07
2023-03-03T12:37:52.330Z,6.45
2023-03-03T12:40:27.546Z,7.85
2023-03-03T12:43:03.500Z,8.43
2023-03-03T12:45:38.600Z,6.82
2023-03-03T12:48:32.755Z,7.75
2023-03-03T12:51:47.879Z,8.13
2023-03-03T12:54:27.362Z,8.30
2023-03-03T12:56:55.505Z,8.57
2023-03-03T12:59:28.382Z,7.70
2023-03-03T13:02:15.426Z,8.07
2023-03-03T13:05:10.865Z,8.40
2023-03-03T13:07:56.325Z,7.80
2023-03-03T13:10:39.283Z,9.93
2023-03-03T13:13:24.846Z,8.93
2023-03-03T13:16:11.285Z,8.55
2023-03-03T13:18:50.036Z,8.52
2023-03-03T13:21:42.530Z,8.63
2023-03-03T13:24:34.724Z,8.90
2023-03-03T13:27:12.440Z,10.95
2023-03-03T13:29:45.335Z,10.25
2023-03-03T13:32:23.223Z,10.60
2023-03-03T13:34:55.615Z,12.07
2023-03-03T13:37:43.680Z,10.90
2023-03-03T13:40:13.458Z,11.82
2023-03-03T13:42:51.173Z,10.73
2023-03-03T13:45:25.984Z,10.70
2023-03-03T13:48:06.736Z,10.88
2023-03-03T13:50:41.841Z,10.80
2023-03-03T13:53:27.569Z,10.20
2023-03-03T13:55:57.912Z,9.13
2023-03-03T13:58:46.861Z,9.70
2023-03-03T14:01:43.055Z,9.65
2023-03-03T14:04:28.590Z,10.18
2023-03-03T14:07:15.678Z,7.90
2023-03-03T14:09:48.955Z,10.88
2023-03-03T14:12:25.060Z,10.60
2023-03-03T14:15:17.539Z,10.50
2023-03-03T14:18:04.096Z,9.02
2023-03-03T14:20:33.534Z,8.98
2023-03-03T14:23:04.424Z,8.93
2023-03-03T14:25:52.878Z,8.43
2023-03-03T14:28:22.030Z,8.82
2023-03-03T14:30:49.315Z,8.57
2023-03-03T14:33:20.031Z,9.82
2023-03-03T14:35:59.078Z,9.52
2023-03-03T14:38:32.094Z,11.20
2023-03-03T14:41:11.285Z,10.48
2023-03-03T14:43:43.445Z,11.73
2023-03-03T14:46:33.678Z,11.98
2023-03-03T14:49:06.750Z,12.52
2023-03-03T14:51:40.101Z,11.52
2023-03-03T14:54:25.123Z,12.45
2023-03-03T14:57:01.707Z,13.43
2023-03-03T14:59:28.864Z,13.80
2023-03-03T15:02:01.688Z,13.18
2023-03-03T15:04:31.217Z,14.35
2023-03-03T15:06:59.429Z,13.55
2023-03-03T15:09:43.455Z,15.20
2023-03-03T15:12:33.085Z,14.82
2023-03-03T15:15:18.115Z,14.95
2023-03-03T15:17:54.722Z,14.35
2023-03-03T15:20:33.565Z,15.93
2023-03-03T15:23:09.115Z,16.70
2023-03-03T15:25:59.150Z,16.83
2023-03-03T15:28:38.288Z,17.33
2023-03-03T15:31:42.537Z,17.25
2023-03-03T15:34:37.793Z,17.42
2023-03-03T15:37:08.217Z,18.20
2023-03-03T15:40:14.811Z,18.20
2023-03-03T15:43:14.275Z,19.42
2023-03-03T15:46:16.412Z,18.25
2023-03-03T15:49:07.611Z,19.23
2023-03-03T15:51:53.782Z,19.55
2023-03-03T15:55:00.785Z,20.95
2023-03-03T15:57:53.718Z,21.08
2023-03-03T16:00:37.095Z,22.83
2023-03-03T16:03:28.494Z,17.10
2023-03-03T16:06:19.829Z,17.08
2023-03-03T16:09:12.955Z,16.62
2023-03-03T16:11:46.063Z,17.90
2023-03-03T16:14:36.808Z,18.35
2023-03-03T16:17:14.801Z,17.40
2023-03-03T16:20:00.692Z,18.48
2023-03-03T16:22:53.938Z,18.77
2023-03-03T16:25:55.282Z,17.73
2023-03-03T16:28:32.374Z,18.05
2023-03-03T16:31:05.143Z,17.83
2023-03-03T16:33:34.885Z,17.17
2023-03-03T16:36:01.861Z,20.05
2023-03-03T16:38:35.950Z,17.35
2023-03-03T16:41:13.804Z,18.37
2023-03-03T16:43:52.230Z,18.02
2023-03-03T16:46:26.052Z,18.77
2023-03-03T16:49:22.299Z,17.37
2023-03-03T16:51:59.105Z,17.30
2023-03-03T16:54:44.734Z,17.85
2023-03-03T16:57:35.770Z,17.20
2023-03-03T17:00:07.465Z,17.20
2023-03-03T17:02:55.410Z,17.75
2023-03-03T17:08:03.165Z,17.60
2023-03-03T17:10:32.943Z,17.65
2023-03-03T17:13:21.797Z,18.30
2023-03-03T17:16:08.695Z,18.50
2023-03-03T17:19:00.492Z,17.77
2023-03-03T17:21:53.488Z,18.40
2023-03-03T17:24:51.292Z,16.50
2023-03-03T17:27:32.182Z,16.80
2023-03-03T17:30:31.037Z,18.45
2023-03-03T17:33:04.862Z,17.77
2023-03-03T17:35:51.744Z,19.48
2023-03-03T17:38:43.903Z,21.40
2023-03-03T17:41:49.283Z,21.85
2023-03-03T17:44:34.229Z,19.37
2023-03-03T17:47:06.240Z,21.52
2023-03-03T17:49:57.322Z,20.42
2023-03-03T17:52:33.247Z,20.58
2023-03-03T17:55:37.882Z,19.95
2023-03-03T17:58:27.700Z,20.17
2023-03-03T18:01:13.184Z,20.40
2023-03-03T18:03:52.698Z,20.35
2023-03-03T18:06:38.019Z,19.45
2023-03-03T18:09:14.647Z,19.33
2023-03-03T18:12:00.787Z,19.30
2023-03-03T18:14:45.850Z,18.80
2023-03-03T18:17:21.644Z,21.10
2023-03-03T18:20:07.073Z,20.35
2023-03-03T18:22:45.705Z,20.83
2023-03-03T18:25:17.159Z,20.90
2023-03-03T18:28:07.724Z,19.98
2023-03-03T18:30:52.913Z,21.00
2023-03-03T18:34:00.650Z,21.17
2023-03-03T18:36:27.450Z,21.42
2023-03-03T18:41:29.556Z,20.48
2023-03-03T18:44:00.478Z,20.98
2023-03-03T18:46:27.300Z,21.70
2023-03-03T18:51:40.332Z,21.15
2023-03-03T18:54:13.091Z,20.70
2023-03-03T18:56:53.532Z,21.85
2023-03-03T18:59:35.902Z,20.23
2023-03-03T19:02:49.730Z,22.08
2023-03-03T19:05:25.480Z,21.60
2023-03-03T19:08:29.541Z,20.73
2023-03-03T19:10:58.909Z,21.65
2023-03-03T19:13:34.883Z,21.30
2023-03-03T19:16:07.330Z,22.50
2023-03-03T19:18:35.690Z,20.42
2023-03-03T19:21:27.152Z,21.83
2023-03-03T19:24:00.746Z,19.90
2023-03-03T19:26:30.626Z,20.52
2023-03-03T19:29:22.366Z,21.73
2023-03-03T19:32:03.150Z,21.90
2023-03-03T19:34:39.663Z,20.42
2023-03-03T19:37:35.269Z,20.80
2023-03-03T19:40:20.732Z,19.35
2023-03-03T19:43:00.764Z,19.10
2023-03-03T19:45:58.322Z,20.83
2023-03-03T19:48:49.283Z,19.23
2023-03-03T19:51:28.409Z,18.90
2023-03-03T19:53:58.130Z,19.50
2023-03-03T19:56:38.277Z,19.83
2023-03-03T19:59:26.665Z,20.35
2023-03-03T20:02:03.841Z,19.48
2023-03-03T20:04:50.851Z,19.77
2023-03-03T20:07:24.302Z,19.83
2023-03-03T20:10:00.312Z,19.98
2023-03-03T20:12:39.523Z,20.20
2023-03-03T20:15:12.474Z,18.77
2023-03-03T20:17:52.406Z,19.62
2023-03-03T20:20:34.568Z,19.08
2023-03-03T20:23:16.687Z,19.85
2023-03-03T20:26:08.728Z,20.17
2023-03-03T20:29:17.346Z,20.05
2023-03-03T20:32:06.971Z,20.25
2023-03-03T20:35:05.626Z,18.45
2023-03-03T20:37:38.952Z,20.30
2023-03-03T20:40:21.024Z,21.25
2023-03-03T20:43:29.528Z,28.23
2023-03-03T20:46:08.008Z,35.22
2023-03-03T20:48:48.314Z,32.53
2023-03-03T20:51:33.279Z,32.20
2023-03-03T20:54:24.318Z,30.40
2023-03-03T20:57:19.873Z,21.92
2023-03-03T20:59:57.817Z,27.87
2023-03-03T21:02:40.236Z,29.58
2023-03-03T21:05:12.589Z,19.45
2023-03-03T21:07:51.745Z,16.83
2023-03-03T21:10:26.888Z,20.62
2023-03-03T21:12:55.930Z,19.17
2023-03-03T21:15:22.828Z,20.58
2023-03-03T21:17:49.832Z,21.80
2023-03-03T21:22:46.752Z,18.98
2023-03-03T21:25:43.406Z,20.10
2023-03-03T21:28:20.238Z,17.83
2023-03-03T21:31:05.699Z,17.75
2023-03-03T21:33:53.325Z,19.98
2023-03-03T21:36:32.322Z,17.50
2023-03-03T21:39:02.242Z,17.10
2023-03-03T21:41:53.197Z,17.95
2023-03-03T21:44:51.665Z,17.27
2023-03-03T21:47:20.084Z,17.73
2023-03-03T21:49:48.845Z,19.48
2023-03-03T21:52:18.128Z,19.25
2023-03-03T21:54:46.902Z,16.92
2023-03-03T21:57:13.860Z,18.40
2023-03-03T21:59:41.165Z,18.48
2023-03-03T22:02:08.336Z,17.87
2023-03-03T22:04:35.296Z,17.52
2023-03-03T22:07:02.232Z,19.10
2023-03-03T22:11:55.966Z,17.42
2023-03-03T22:14:22.828Z,17.45
2023-03-03T22:19:16.446Z,18.98
2023-03-03T22:24:10.070Z,17.75
2023-03-03T22:26:36.919Z,17.65
2023-03-03T22:31:30.775Z,18.30
2023-03-03T22:33:57.690Z,17.77
2023-03-03T22:38:51.471Z,16.77
2023-03-03T22:41:18.562Z,15.73
2023-03-03T22:43:45.874Z,18.33
2023-03-03T22:46:12.837Z,17.60
2023-03-03T22:48:39.991Z,17.05
2023-03-03T22:51:06.906Z,17.27
2023-03-03T22:56:00.684Z,15.63
2023-03-03T23:00:54.681Z,16.10
2023-03-03T23:03:21.882Z,16.20
2023-03-03T23:05:51.607Z,15.30
2023-03-03T23:08:19.656Z,17.10
2023-03-03T23:10:46.724Z,15.65
2023-03-03T23:13:13.912Z,17.80
2023-03-03T23:15:40.954Z,17.00
2023-03-03T23:18:07.985Z,19.60
2023-03-03T23:20:35.016Z,17.75
2023-03-03T23:23:01.885Z,19.30
2023-03-03T23:27:56.366Z,18.30
2023-03-03T23:30:23.333Z,17.87
2023-03-03T23:32:50.836Z,18.27
2023-03-03T23:35:17.821Z,18.58
2023-03-03T23:37:45.172Z,19.83
2023-03-03T23:40:13.720Z,18.17
2023-03-03T23:42:40.821Z,18.95
2023-03-03T23:45:08.565Z,19.02
2023-03-03T23:47:35.498Z,19.40
2023-03-03T23:50:02.487Z,18.75
2023-03-03T23:52:29.382Z,18.73
2023-03-03T23:57:22.935Z,17.35
